Time;durP1;ratioP1;P1;durP2;ratioP2;P2;SDS_P1;SDS_P2;PMS_P1;PMS_P2;Temp;Humidity;BMP_temperature;BMP_pressure;BME280_temperature;BME280_humidity;BME280_pressure;Samples;Min_cycle;Max_cycle;Signal;HPM_P1;HPM_P2
2021/07/27 00:01:33;;;;;;;17.32;14.50;;;;;;;28.90;48.33;101816.90;1624543;87;21097;-47
2021/07/27 00:04:00;;;;;;;17.07;12.28;;;;;;;28.93;48.72;101819.34;1626470;87;21105;-47
2021/07/27 00:06:27;;;;;;;17.45;11.80;;;;;;;28.96;49.19;101818.59;1637836;86;21591;-51
2021/07/27 00:08:54;;;;;;;19.45;10.98;;;;;;;29.00;49.36;101815.16;1638215;86;21061;-48
2021/07/27 00:11:22;;;;;;;19.05;10.93;;;;;;;29.04;49.47;101815.78;1626860;86;21042;-45
2021/07/27 00:13:49;;;;;;;13.03;10.23;;;;;;;29.06;49.69;101815.17;1646010;86;21529;-46
2021/07/27 00:16:16;;;;;;;14.75;10.20;;;;;;;29.10;49.72;101826.00;1627823;86;21165;-47
2021/07/27 00:18:42;;;;;;;11.73;9.63;;;;;;;29.14;49.94;101827.45;1637784;87;21080;-49
2021/07/27 00:21:09;;;;;;;14.78;9.73;;;;;;;29.19;50.17;101822.57;1636540;87;21488;-50
2021/07/27 00:23:37;;;;;;;13.00;10.30;;;;;;;29.23;50.26;101813.30;1638049;86;21555;-49
2021/07/27 00:26:13;;;;;;;15.68;10.95;;;;;;;29.28;50.14;101815.12;1623983;86;21058;-50
2021/07/27 00:28:41;;;;;;;12.15;10.90;;;;;;;29.27;50.22;101817.42;1613990;87;21041;-47
2021/07/27 00:33:47;;;;;;;19.75;11.45;;;;;;;29.32;50.07;101817.91;1590709;89;21093;-47
2021/07/27 00:36:15;;;;;;;13.28;9.63;;;;;;;29.33;50.10;101814.23;1592641;89;21624;-47
2021/07/27 00:38:42;;;;;;;15.35;10.45;;;;;;;29.34;50.18;101811.44;1566546;90;21085;-46
2021/07/27 00:41:09;;;;;;;17.02;9.45;;;;;;;29.35;50.21;101809.59;1589671;89;21099;-50
2021/07/27 00:43:36;;;;;;;13.62;10.18;;;;;;;29.37;50.07;101799.58;1574025;89;21072;-48
2021/07/27 00:46:03;;;;;;;13.53;9.63;;;;;;;29.37;49.90;101795.56;1567664;91;21422;-48
2021/07/27 00:48:30;;;;;;;15.50;9.15;;;;;;;29.38;49.75;101798.63;1589790;89;21628;-51
2021/07/27 00:50:57;;;;;;;13.40;9.00;;;;;;;29.38;49.56;101798.63;1589793;89;21081;-48
2021/07/27 00:53:23;;;;;;;11.60;8.63;;;;;;;29.38;49.50;101806.66;1594750;89;21065;-48
2021/07/27 00:55:51;;;;;;;11.28;8.20;;;;;;;29.38;49.58;101796.80;1550106;90;21121;-47
2021/07/27 00:58:18;;;;;;;10.20;8.50;;;;;;;29.38;49.73;101797.28;1592309;89;21570;-46
2021/07/27 01:00:45;;;;;;;11.20;8.45;;;;;;;29.38;49.76;101791.91;1566419;91;21086;-50
2021/07/27 01:03:12;;;;;;;10.60;8.28;;;;;;;29.38;49.68;101794.59;1589017;89;21034;-48
2021/07/27 01:05:39;;;;;;;18.12;10.50;;;;;;;29.37;49.71;101791.53;1569303;91;21124;-48
2021/07/27 01:08:06;;;;;;;13.08;8.90;;;;;;;29.37;49.85;101791.53;1592697;88;21081;-50
2021/07/27 01:10:33;;;;;;;10.03;8.93;;;;;;;29.37;50.01;101790.20;1592448;89;21117;-47
2021/07/27 01:13:01;;;;;;;9.55;8.55;;;;;;;29.36;50.20;101787.17;1565920;91;21557;-47
2021/07/27 01:15:29;;;;;;;12.28;8.83;;;;;;;29.35;50.38;101794.84;1571798;89;21125;-47
2021/07/27 01:18:04;;;;;;;10.48;7.87;;;;;;;29.32;50.49;101788.41;1566859;90;21676;-47
2021/07/27 01:20:44;;;;;;;10.25;8.25;;;;;;;29.29;50.59;101783.30;1593430;89;21137;-47
2021/07/27 01:39:25;;;;;;;19.77;10.20;;;;;;;29.12;50.87;101787.34;1597643;89;21058;-46
2021/07/27 01:42:08;;;;;;;14.00;9.30;;;;;;;29.12;50.97;101787.86;1595044;89;21057;-46
2021/07/27 01:44:46;;;;;;;14.85;9.23;;;;;;;29.09;50.93;101781.40;1615272;88;21054;-47
2021/07/27 01:47:21;;;;;;;15.43;10.43;;;;;;;29.08;50.68;101787.75;1617608;88;21077;-49
2021/07/27 01:49:50;;;;;;;13.68;9.78;;;;;;;29.05;50.30;101786.17;1583803;89;21069;-49
2021/07/27 01:52:17;;;;;;;13.20;9.28;;;;;;;29.02;50.10;101782.91;1609346;88;21085;-50
2021/07/27 01:54:53;;;;;;;13.32;10.30;;;;;;;29.00;49.88;101783.52;1616780;88;21110;-49
2021/07/27 01:57:21;;;;;;;15.75;9.90;;;;;;;28.98;49.73;101784.48;1594095;89;21114;-51
2021/07/27 02:00:04;;;;;;;15.60;10.65;;;;;;;28.94;49.64;101781.70;1613828;88;21557;-50
2021/07/27 02:02:33;;;;;;;13.50;9.33;;;;;;;28.91;49.45;101779.25;1608106;88;21045;-49
2021/07/27 02:05:00;;;;;;;15.50;9.75;;;;;;;28.87;49.12;101780.48;1592796;89;21053;-48
2021/07/27 02:07:26;;;;;;;13.32;9.25;;;;;;;28.82;48.86;101771.99;1616181;87;21057;-49
2021/07/27 02:10:00;;;;;;;16.20;9.90;;;;;;;28.78;48.67;101770.54;1584520;88;21049;-47
2021/07/27 02:12:24;;;;;;;17.52;10.30;;;;;;;28.75;48.54;101777.95;1614895;88;21554;-50
2021/07/27 02:15:04;;;;;;;13.53;10.38;;;;;;;28.70;48.48;101777.02;1640045;86;21012;-47
2021/07/27 02:17:34;;;;;;;10.65;9.43;;;;;;;28.66;48.52;101779.58;1643014;86;21080;-47
2021/07/27 02:20:02;;;;;;;11.90;9.30;;;;;;;28.61;48.79;101781.77;1641437;87;21047;-47
2021/07/27 02:22:35;;;;;;;14.87;10.00;;;;;;;28.57;49.09;101777.64;1614570;88;21075;-47
2021/07/27 02:25:06;;;;;;;13.70;10.45;;;;;;;28.55;49.33;101779.55;1611210;88;21058;-47
2021/07/27 02:27:32;;;;;;;16.83;10.43;;;;;;;28.52;49.45;101771.75;1639175;87;21071;-50
2021/07/27 02:30:03;;;;;;;14.87;10.10;;;;;;;28.50;49.68;101771.03;1640895;87;21056;-46
2021/07/27 02:32:29;;;;;;;16.15;10.75;;;;;;;28.50;50.23;101775.05;1606448;89;21076;-51
2021/07/27 02:34:56;;;;;;;16.37;11.25;;;;;;;28.49;50.82;101777.38;1582227;89;21105;-47
2021/07/27 02:37:25;;;;;;;14.10;11.05;;;;;;;28.51;51.52;101783.45;1602719;89;21644;-48
2021/07/27 02:39:52;;;;;;;18.20;11.30;;;;;;;28.52;52.10;101778.45;1597274;89;21063;-47
2021/07/27 02:42:20;;;;;;;25.97;12.20;;;;;;;28.54;52.67;101775.16;1581933;88;21130;-48
2021/07/27 02:44:46;;;;;;;16.57;12.40;;;;;;;28.57;53.33;101776.78;1602944;89;21122;-48
2021/07/27 02:47:13;;;;;;;14.20;11.43;;;;;;;28.60;53.75;101777.88;1602425;89;21091;-48
2021/07/27 02:49:40;;;;;;;21.25;12.07;;;;;;;28.62;54.02;101784.83;1571126;87;21064;-47
2021/07/27 02:52:07;;;;;;;18.00;12.00;;;;;;;28.65;54.33;101771.17;1605491;87;21631;-48
2021/07/27 02:54:40;;;;;;;13.85;11.10;;;;;;;28.68;54.64;101782.13;1608206;89;21119;-48
2021/07/27 02:57:06;;;;;;;18.57;10.58;;;;;;;28.70;54.88;101776.16;1594447;87;21104;-50
2021/07/27 02:59:33;;;;;;;25.57;11.53;;;;;;;28.72;55.16;101781.76;1594711;89;21087;-49
2021/07/27 03:02:00;;;;;;;18.32;12.00;;;;;;;28.75;55.37;101780.16;1582879;87;21028;-47
2021/07/27 03:04:27;;;;;;;14.23;12.03;;;;;;;28.82;55.43;101780.03;1589044;88;21604;-49
2021/07/27 03:06:55;;;;;;;14.50;11.38;;;;;;;28.86;55.49;101778.80;1583463;89;21037;-48
2021/07/27 03:09:30;;;;;;;21.02;11.95;;;;;;;28.88;55.57;101786.22;1591804;87;21095;-47
2021/07/27 03:11:57;;;;;;;16.60;11.63;;;;;;;28.88;55.71;101788.90;1585236;87;21357;-52
2021/07/27 03:14:26;;;;;;;12.73;11.35;;;;;;;28.92;55.73;101795.70;1604444;89;21289;-50
2021/07/27 03:16:55;;;;;;;15.25;11.48;;;;;;;28.95;55.82;101796.78;1606107;89;21560;-51
2021/07/27 03:19:23;;;;;;;12.07;10.35;;;;;;;28.98;55.85;101788.50;1595637;89;21614;-50
2021/07/27 03:21:49;;;;;;;17.57;10.30;;;;;;;29.03;55.56;101795.30;1585940;89;21592;-49
2021/07/27 03:24:16;;;;;;;11.97;9.98;;;;;;;29.07;55.06;101799.44;1588197;87;21147;-48
2021/07/27 03:26:44;;;;;;;12.00;10.08;;;;;;;29.09;54.60;101797.00;1591603;89;21060;-50
2021/07/27 03:29:11;;;;;;;11.83;9.78;;;;;;;29.12;53.46;101805.28;1623134;87;21060;-49
2021/07/27 03:31:37;;;;;;;14.25;9.30;;;;;;;29.16;52.37;101808.10;1636858;86;21592;-47
2021/07/27 03:34:04;;;;;;;13.13;9.73;;;;;;;29.18;51.57;101809.65;1638156;86;21032;-46
2021/07/27 03:36:32;;;;;;;10.28;8.38;;;;;;;29.21;50.78;101815.25;1637451;86;21071;-46
2021/07/27 03:39:00;;;;;;;11.22;8.73;;;;;;;29.29;50.15;101812.78;1640143;86;21615;-46
2021/07/27 03:41:26;;;;;;;13.58;7.87;;;;;;;29.43;49.39;101815.19;1639832;86;21084;-48
2021/07/27 03:43:53;;;;;;;11.20;8.80;;;;;;;29.68;48.34;101817.47;1641190;87;21571;-48
2021/07/27 03:46:21;;;;;;;10.23;8.05;;;;;;;30.02;47.25;101820.84;1631780;87;21087;-46
2021/07/27 03:48:49;;;;;;;12.18;8.30;;;;;;;30.42;46.20;101818.59;1634827;86;21084;-48
2021/07/27 03:51:16;;;;;;;12.35;8.70;;;;;;;30.86;44.96;101819.18;1643324;86;21067;-47
2021/07/27 03:53:43;;;;;;;11.73;8.75;;;;;;;31.25;44.12;101816.90;1637532;86;21048;-46
2021/07/27 03:56:11;;;;;;;16.40;9.00;;;;;;;31.55;43.39;101815.42;1632721;86;21052;-48
2021/07/27 03:58:42;;;;;;;14.33;8.55;;;;;;;31.74;42.92;101816.76;1641442;86;21084;-48
2021/07/27 04:01:07;;;;;;;14.73;8.30;;;;;;;31.84;42.36;101812.20;1645320;86;21028;-46
2021/07/27 04:03:34;;;;;;;8.55;7.08;;;;;;;31.87;41.99;101806.55;1639831;86;22175;-46
2021/07/27 04:06:01;;;;;;;25.23;8.58;;;;;;;31.86;41.82;101813.42;1638998;87;21103;-48
2021/07/27 04:08:27;;;;;;;23.67;8.88;;;;;;;31.77;41.79;101817.83;1640038;86;21052;-48
2021/07/27 04:11:06;;;;;;;16.77;8.93;;;;;;;31.65;42.04;101815.44;1639206;87;21535;-51
2021/07/27 04:13:33;;;;;;;13.18;7.75;;;;;;;31.48;42.24;101812.98;1635829;87;21055;-48
2021/07/27 04:16:01;;;;;;;186.03;24.23;;;;;;;31.31;42.48;101810.95;1636946;86;21051;-47
2021/07/27 04:18:29;;;;;;;28.15;11.55;;;;;;;31.18;42.73;101807.72;1637775;86;21067;-48
2021/07/27 04:21:01;;;;;;;137.30;16.27;;;;;;;31.03;43.24;101809.11;1612417;87;21054;-48
2021/07/27 04:23:29;;;;;;;10.95;8.78;;;;;;;30.91;43.59;101799.47;1620970;88;21073;-50
2021/07/27 04:25:55;;;;;;;13.13;8.38;;;;;;;30.77;43.88;101806.05;1619372;87;21102;-46
2021/07/27 04:28:22;;;;;;;13.00;8.03;;;;;;;30.68;44.27;101807.38;1590372;88;21152;-48
2021/07/27 04:30:49;;;;;;;10.88;8.70;;;;;;;30.58;44.72;101807.84;1617896;87;21058;-48
2021/07/27 04:33:17;;;;;;;14.18;8.80;;;;;;;30.49;45.19;101813.53;1615206;87;21011;-52
2021/07/27 04:35:44;;;;;;;11.40;8.25;;;;;;;30.41;45.57;101812.87;1616810;86;21141;-47
2021/07/27 04:38:11;;;;;;;12.78;8.60;;;;;;;30.34;45.67;101818.42;1589649;89;21089;-53
2021/07/27 04:40:38;;;;;;;11.75;8.73;;;;;;;30.28;45.77;101816.24;1616670;88;21161;-48
2021/07/27 04:43:05;;;;;;;16.15;9.30;;;;;;;30.22;46.02;101811.89;1595497;89;21077;-49
2021/07/27 04:45:33;;;;;;;11.40;7.70;;;;;;;30.17;46.01;101808.78;1586940;88;21151;-50
2021/07/27 04:47:59;;;;;;;12.23;8.85;;;;;;;30.13;46.02;101809.52;1601824;88;21650;-48
2021/07/27 04:50:26;;;;;;;11.43;8.98;;;;;;;30.10;46.05;101809.80;1599051;87;21565;-50
2021/07/27 04:53:01;;;;;;;10.23;7.97;;;;;;;30.08;45.75;101807.74;1619945;87;21078;-47
2021/07/27 04:55:27;;;;;;;10.93;8.50;;;;;;;30.09;45.42;101812.11;1610718;88;21629;-48
2021/07/27 04:57:54;;;;;;;9.50;8.38;;;;;;;30.07;45.55;101812.73;1616193;87;21057;-48
2021/07/27 05:00:24;;;;;;;10.10;8.73;;;;;;;30.07;45.81;101811.39;1569785;87;21034;-46
2021/07/27 05:02:51;;;;;;;11.40;9.03;;;;;;;30.08;45.97;101812.25;1594290;89;21133;-47
2021/07/27 05:05:18;;;;;;;11.97;9.45;;;;;;;30.07;46.16;101811.39;1595150;89;21465;-48
2021/07/27 05:07:45;;;;;;;21.30;9.25;;;;;;;30.07;46.33;101820.79;1591394;88;21118;-49
2021/07/27 05:10:13;;;;;;;14.30;9.50;;;;;;;30.07;46.61;101824.81;1594366;89;21085;-48
2021/07/27 05:12:41;;;;;;;10.35;8.03;;;;;;;30.07;47.07;101822.65;1606485;89;21149;-49
2021/07/27 05:15:09;;;;;;;14.35;9.73;;;;;;;30.07;47.42;101819.45;1591479;89;21079;-49
2021/07/27 05:17:38;;;;;;;13.40;9.30;;;;;;;30.08;47.69;101823.84;1597735;88;21066;-47
2021/07/27 05:20:06;;;;;;;12.68;8.98;;;;;;;30.11;47.90;101823.56;1608568;88;21059;-47
2021/07/27 05:22:34;;;;;;;15.05;8.85;;;;;;;30.14;48.03;101828.69;1618741;88;21050;-48
2021/07/27 05:25:01;;;;;;;8.75;7.83;;;;;;;30.18;48.34;101825.23;1637277;86;21119;-51
2021/07/27 05:27:28;;;;;;;16.07;9.18;;;;;;;30.22;48.56;101823.49;1631159;87;21048;-46
2021/07/27 05:29:55;;;;;;;67.10;14.70;;;;;;;30.29;48.72;101826.05;1642388;87;21056;-49
2021/07/27 05:32:23;;;;;;;11.75;8.30;;;;;;;30.36;48.82;101816.45;1613582;87;21066;-46
2021/07/27 05:34:50;;;;;;;23.27;10.78;;;;;;;30.45;48.88;101814.30;1638323;86;21063;-48
2021/07/27 05:37:17;;;;;;;9.30;7.55;;;;;;;30.57;48.76;101813.70;1628632;87;21065;-50
2021/07/27 05:39:43;;;;;;;9.20;8.05;;;;;;;30.70;48.68;101817.48;1615210;87;21572;-47
2021/07/27 05:42:10;;;;;;;12.70;7.72;;;;;;;30.85;48.25;101817.50;1638062;87;21555;-52
2021/07/27 05:44:37;;;;;;;12.82;7.90;;;;;;;31.02;47.93;101810.08;1640139;87;21084;-48
2021/07/27 05:47:04;;;;;;;11.73;7.55;;;;;;;31.22;47.44;101819.89;1640908;87;21409;-47
2021/07/27 05:49:34;;;;;;;11.83;7.83;;;;;;;31.42;47.30;101822.96;1638917;86;21102;-47
2021/07/27 05:52:00;;;;;;;10.25;8.05;;;;;;;31.61;47.00;101830.17;1639303;87;21012;-48
2021/07/27 05:54:28;;;;;;;19.73;9.50;;;;;;;31.77;46.85;101829.09;1640504;87;21587;-48
2021/07/27 05:56:55;;;;;;;12.68;8.85;;;;;;;31.90;46.46;101830.47;1625574;87;21047;-52
2021/07/27 05:59:23;;;;;;;14.03;8.65;;;;;;;32.07;46.48;101829.75;1639433;86;21083;-51
2021/07/27 06:01:50;;;;;;;11.88;8.43;;;;;;;32.22;46.14;101833.32;1638163;86;21055;-47
2021/07/27 06:04:17;;;;;;;13.43;8.20;;;;;;;32.37;45.59;101840.80;1640835;87;21044;-54
2021/07/27 06:06:44;;;;;;;15.60;7.65;;;;;;;32.54;45.49;101836.50;1634209;87;21035;-49
2021/07/27 06:09:12;;;;;;;12.93;8.73;;;;;;;32.70;45.16;101833.52;1639746;87;21016;-49
2021/07/27 06:11:39;;;;;;;13.25;8.00;;;;;;;32.87;45.32;101834.55;1641674;86;21012;-47
2021/07/27 06:14:07;;;;;;;19.57;8.40;;;;;;;32.99;45.37;101840.11;1632998;86;21158;-49
2021/07/27 06:16:38;;;;;;;11.75;8.10;;;;;;;33.06;45.21;101836.27;1626509;87;21095;-48
2021/07/27 06:19:05;;;;;;;9.68;8.35;;;;;;;33.08;45.11;101841.05;1629606;86;21024;-47
2021/07/27 06:21:33;;;;;;;21.40;8.85;;;;;;;33.07;45.08;101845.59;1639936;86;21500;-50
2021/07/27 06:23:59;;;;;;;17.15;8.10;;;;;;;33.05;45.02;101839.98;1642067;86;21140;-47
2021/07/27 06:26:27;;;;;;;15.70;7.55;;;;;;;33.02;44.79;101838.44;1638134;87;21102;-52
2021/07/27 06:28:54;;;;;;;12.37;7.85;;;;;;;33.02;44.94;101837.58;1636576;87;21032;-49
2021/07/27 06:31:20;;;;;;;17.17;9.40;;;;;;;33.00;45.28;101837.74;1638880;87;21087;-49
2021/07/27 06:33:47;;;;;;;16.02;8.43;;;;;;;33.00;45.41;101843.14;1637334;87;21107;-49
2021/07/27 06:36:14;;;;;;;14.20;8.50;;;;;;;32.99;45.58;101838.76;1640753;87;21164;-49
2021/07/27 06:38:41;;;;;;;14.05;8.63;;;;;;;32.99;45.51;101838.76;1642663;87;21055;-49
2021/07/27 06:41:09;;;;;;;16.97;7.62;;;;;;;32.99;45.68;101841.45;1637878;87;21133;-49
2021/07/27 06:43:37;;;;;;;13.00;8.98;;;;;;;32.99;45.63;101836.06;1641240;86;21111;-50
2021/07/27 06:46:04;;;;;;;15.23;8.03;;;;;;;33.00;45.94;101842.28;1631525;86;21114;-49
2021/07/27 06:48:31;;;;;;;15.10;8.45;;;;;;;33.01;45.72;101838.59;1627565;86;21027;-49
2021/07/27 06:50:58;;;;;;;12.63;7.62;;;;;;;33.00;45.71;101836.39;1618563;87;21052;-47
2021/07/27 06:53:26;;;;;;;13.38;7.60;;;;;;;33.00;45.61;101837.74;1632146;86;21095;-51
2021/07/27 06:55:56;;;;;;;12.45;8.55;;;;;;;33.00;45.65;101839.09;1612773;86;21036;-48
2021/07/27 06:58:22;;;;;;;12.10;7.53;;;;;;;33.02;45.73;101835.74;1634233;86;21068;-49
2021/07/27 07:00:49;;;;;;;10.28;9.05;;;;;;;33.03;45.50;101837.95;1645769;87;21608;-48
2021/07/27 07:03:16;;;;;;;16.70;8.25;;;;;;;33.03;45.50;101837.95;1638003;87;21056;-50
2021/07/27 07:05:43;;;;;;;11.63;7.55;;;;;;;33.04;45.48;101840.48;1637002;86;21087;-48
2021/07/27 07:08:10;;;;;;;10.80;8.15;;;;;;;33.05;45.77;101839.98;1635047;87;21072;-51
2021/07/27 07:10:36;;;;;;;16.57;9.23;;;;;;;33.06;45.89;101839.83;1632022;87;21547;-54
2021/07/27 07:13:03;;;;;;;12.78;8.08;;;;;;;33.06;45.97;101851.97;1633901;86;21066;-49
2021/07/27 07:15:32;;;;;;;13.88;8.40;;;;;;;33.04;46.38;101849.92;1634915;87;21559;-49
2021/07/27 07:17:59;;;;;;;12.55;8.63;;;;;;;33.00;46.69;101848.53;1629900;86;21059;-48
2021/07/27 07:20:27;;;;;;;13.25;9.08;;;;;;;32.99;46.43;101849.55;1636603;87;21087;-50
2021/07/27 07:22:54;;;;;;;15.15;8.58;;;;;;;32.99;46.91;101854.94;1634499;86;21012;-48
2021/07/27 07:25:21;;;;;;;20.75;8.50;;;;;;;33.03;47.32;101854.98;1629656;87;21538;-51
2021/07/27 07:27:48;;;;;;;19.37;9.63;;;;;;;33.04;47.56;101853.97;1607707;88;21039;-50
2021/07/27 07:30:15;;;;;;;21.25;9.20;;;;;;;33.06;47.10;101850.61;1620403;88;21569;-48
2021/07/27 07:32:42;;;;;;;17.27;13.05;;;;;;;33.06;47.24;101858.70;1637165;87;21052;-50
2021/07/27 07:35:10;;;;;;;16.30;11.55;;;;;;;33.06;47.34;101858.70;1584330;89;21050;-50
2021/07/27 07:37:37;;;;;;;15.85;9.68;;;;;;;33.07;47.00;101860.42;1621564;87;21002;-52
2021/07/27 07:40:06;;;;;;;16.80;7.83;;;;;;;33.10;46.68;101861.97;1615284;87;21107;-52
2021/07/27 07:42:33;;;;;;;12.82;7.47;;;;;;;33.11;46.85;101856.41;1613395;87;21026;-52
2021/07/27 07:45:00;;;;;;;12.75;8.60;;;;;;;33.13;46.56;101858.45;1614949;88;21077;-50
2021/07/27 07:47:27;;;;;;;11.48;8.15;;;;;;;33.15;47.38;101861.84;1619079;87;21129;-50
2021/07/27 07:49:53;;;;;;;15.85;7.60;;;;;;;33.16;47.77;101866.23;1612939;88;21545;-49
2021/07/27 07:52:20;;;;;;;19.23;8.55;;;;;;;33.18;47.71;101865.58;1610020;87;21058;-50
2021/07/27 07:54:47;;;;;;;19.70;8.35;;;;;;;33.20;47.92;101864.09;1618841;87;21089;-50
2021/07/27 07:57:14;;;;;;;9.45;7.37;;;;;;;33.21;48.11;101865.28;1614139;88;21530;-50
2021/07/27 07:59:44;;;;;;;10.93;7.20;;;;;;;33.19;48.15;101865.94;1606427;88;21018;-50
2021/07/27 08:02:11;;;;;;;10.32;7.37;;;;;;;33.17;48.44;101863.89;1603997;88;21022;-51
2021/07/27 08:04:38;;;;;;;10.32;6.90;;;;;;;33.16;48.34;101867.58;1615568;87;21533;-51
2021/07/27 08:07:06;;;;;;;15.70;6.85;;;;;;;33.16;48.37;101865.41;1635971;86;21579;-48
2021/07/27 08:09:34;;;;;;;13.28;7.40;;;;;;;33.16;48.39;101870.27;1629387;87;21076;-49
2021/07/27 08:12:01;;;;;;;17.75;7.90;;;;;;;33.18;48.61;101864.22;1636265;87;21084;-51
2021/07/27 08:14:28;;;;;;;13.08;6.80;;;;;;;33.17;48.59;101858.50;1641786;87;21083;-49
2021/07/27 08:16:55;;;;;;;13.72;6.90;;;;;;;33.20;48.65;101864.92;1634219;87;22602;-56
2021/07/27 08:19:22;;;;;;;19.62;15.75;;;;;;;33.25;48.38;101860.42;1636831;87;21547;-51
2021/07/27 08:21:49;;;;;;;12.65;9.13;;;;;;;33.28;48.31;101859.64;1633775;87;21076;-48
2021/07/27 08:24:16;;;;;;;10.48;7.65;;;;;;;33.34;48.01;101860.37;1632431;87;21063;-50
2021/07/27 08:26:43;;;;;;;10.10;8.68;;;;;;;33.39;47.79;101871.53;1636169;86;21517;-52
2021/07/27 08:29:10;;;;;;;10.30;6.72;;;;;;;33.44;47.73;101873.28;1637251;86;21044;-50
2021/07/27 08:31:38;;;;;;;13.13;7.10;;;;;;;33.49;47.66;101877.73;1628856;86;21111;-50
2021/07/27 08:34:05;;;;;;;12.82;7.08;;;;;;;33.52;47.52;101879.28;1630849;86;21059;-49
2021/07/27 08:36:32;;;;;;;12.43;6.35;;;;;;;33.52;47.45;101872.03;1633664;87;21056;-50
2021/07/27 08:38:59;;;;;;;10.72;5.87;;;;;;;33.53;47.52;101873.72;1634306;87;21115;-49
2021/07/27 08:41:29;;;;;;;15.05;6.22;;;;;;;33.54;47.38;101872.73;1631787;86;21028;-50
2021/07/27 08:43:57;;;;;;;7.65;6.08;;;;;;;33.55;47.21;101869.01;1644077;86;21067;-50
2021/07/27 08:46:25;;;;;;;11.33;6.50;;;;;;;33.54;47.28;101867.83;1635721;87;21098;-49
2021/07/27 08:48:52;;;;;;;12.45;5.72;;;;;;;33.55;47.39;101866.31;1629812;87;21008;-50
2021/07/27 08:51:23;;;;;;;6.97;6.28;;;;;;;33.58;46.93;101874.11;1606079;88;21506;-53
2021/07/27 08:53:47;;;;;;;11.43;6.60;;;;;;;33.58;46.77;101864.67;1617794;88;21054;-50
2021/07/27 08:56:14;;;;;;;10.23;5.95;;;;;;;33.58;46.77;101865.16;1609953;88;21050;-49
2021/07/27 08:58:41;;;;;;;10.25;5.90;;;;;;;33.59;46.97;101862.30;1614498;88;21000;-49
2021/07/27 09:01:07;;;;;;;9.05;5.90;;;;;;;33.60;47.36;101866.70;1607532;87;21073;-51
2021/07/27 09:03:34;;;;;;;6.55;5.75;;;;;;;33.62;47.49;101864.70;1613363;86;20994;-48
2021/07/27 09:06:05;;;;;;;10.03;5.80;;;;;;;33.65;47.21;101861.67;1608526;88;21011;-49
2021/07/27 09:08:32;;;;;;;8.83;6.20;;;;;;;33.67;46.97;101862.03;1609058;88;21038;-50
2021/07/27 09:11:01;;;;;;;9.70;6.30;;;;;;;33.69;47.29;101858.67;1617534;88;21217;-49
2021/07/27 09:13:33;;;;;;;6.85;5.85;;;;;;;33.72;47.38;101861.08;1600394;88;21010;-50
2021/07/27 09:16:00;;;;;;;10.80;6.47;;;;;;;33.74;47.09;101861.77;1570039;90;21053;-49
2021/07/27 09:18:29;;;;;;;6.80;6.05;;;;;;;33.75;47.22;101856.20;1559343;91;21606;-50
2021/07/27 09:20:57;;;;;;;10.48;6.42;;;;;;;33.74;47.45;101850.97;1566342;89;21100;-53
2021/07/27 09:26:00;;;;;;;6.70;5.78;;;;;;;33.74;47.54;101857.19;1531293;92;21033;-53
2021/07/27 09:28:27;;;;;;;9.28;6.25;;;;;;;33.77;47.63;101857.39;1499273;94;21518;-50
2021/07/27 09:31:00;;;;;;;9.38;6.30;;;;;;;33.77;47.84;101854.69;1508063;94;21515;-48
2021/07/27 09:33:29;;;;;;;6.67;5.90;;;;;;;33.76;48.07;101857.88;1516090;94;21055;-49
2021/07/27 09:35:56;;;;;;;15.03;6.12;;;;;;;33.76;47.91;101853.83;1507467;94;21051;-51
2021/07/27 09:38:23;;;;;;;9.70;5.90;;;;;;;33.77;47.61;101850.14;1515210;94;21118;-50
2021/07/27 09:40:55;;;;;;;8.53;5.67;;;;;;;33.79;45.61;101849.98;1522877;93;21007;-52
2021/07/27 09:43:24;;;;;;;6.30;5.42;;;;;;;33.75;45.44;101845.90;1510887;93;21090;-51
2021/07/27 09:46:00;;;;;;;6.53;5.40;;;;;;;33.72;44.88;101847.58;1508528;93;21215;-48
2021/07/27 09:48:26;;;;;;;6.17;5.58;;;;;;;33.63;45.19;101848.01;1496034;94;21713;-51
2021/07/27 09:50:55;;;;;;;8.43;6.22;;;;;;;33.59;45.27;101843.41;1500336;93;21096;-51
2021/07/27 09:53:22;;;;;;;7.12;6.28;;;;;;;33.59;44.95;101850.68;1495420;95;21122;-48
2021/07/27 09:55:50;;;;;;;13.45;6.40;;;;;;;33.54;44.86;101848.44;1490922;94;21715;-49
2021/07/27 09:58:18;;;;;;;8.68;5.40;;;;;;;33.49;45.69;101853.44;1454794;97;21110;-50
2021/07/27 10:01:05;;;;;;;7.60;5.42;;;;;;;33.49;45.93;101853.97;1472833;96;21907;-52
2021/07/27 10:03:34;;;;;;;9.03;6.08;;;;;;;33.53;46.22;101857.52;1460294;97;21118;-47
2021/07/27 10:06:03;;;;;;;6.97;5.70;;;;;;;33.59;46.66;101856.08;1477681;96;21092;-54
2021/07/27 10:08:35;;;;;;;7.33;5.60;;;;;;;33.63;46.95;101854.23;1469109;96;21130;-50
2021/07/27 10:11:12;;;;;;;14.65;11.40;;;;;;;33.71;47.15;101851.27;1406194;101;21645;-54
2021/07/27 10:13:46;;;;;;;9.00;6.80;;;;;;;33.77;47.26;101854.69;1423543;99;21154;-49
2021/07/27 10:16:22;;;;;;;11.38;6.60;;;;;;;33.83;46.99;101848.66;1423309;99;21153;-51
2021/07/27 10:18:49;;;;;;;8.40;6.37;;;;;;;33.88;47.20;101855.80;1415777;98;21652;-49
2021/07/27 10:21:24;;;;;;;13.83;12.43;;;;;;;33.94;46.69;101852.47;1423232;99;21107;-52
2021/07/27 10:24:19;;;;;;;9.68;8.78;;;;;;;34.00;46.53;101858.61;1387688;101;21136;-50
2021/07/27 10:26:48;;;;;;;8.08;7.12;;;;;;;34.03;46.22;101859.63;1373743;102;21108;-50
2021/07/27 10:29:16;;;;;;;9.65;6.15;;;;;;;34.07;45.67;101854.25;1377725;102;21118;-51
2021/07/27 10:31:44;;;;;;;9.78;6.50;;;;;;;34.13;45.68;101856.31;1410955;99;21107;-51
2021/07/27 10:34:12;;;;;;;8.63;6.42;;;;;;;34.17;45.46;101849.09;1439987;97;21057;-50
2021/07/27 10:36:47;;;;;;;8.90;6.90;;;;;;;34.20;45.54;101845.23;1452139;96;21576;-51
2021/07/27 10:39:19;;;;;;;9.08;6.50;;;;;;;34.23;45.40;101847.63;1414936;99;22556;-48
2021/07/27 10:41:48;;;;;;;10.08;6.12;;;;;;;34.22;44.90;101847.27;1416370;98;21214;-52
2021/07/27 10:44:25;;;;;;;10.25;6.47;;;;;;;34.21;44.89;101852.34;1426337;98;21150;-52
2021/07/27 10:46:52;;;;;;;8.30;6.08;;;;;;;34.18;45.16;101848.10;1475503;95;21109;-49
2021/07/27 10:49:25;;;;;;;8.93;6.58;;;;;;;34.18;45.71;101854.86;1542431;90;21101;-54
2021/07/27 10:51:53;;;;;;;9.48;6.28;;;;;;;34.18;46.07;101855.35;1569368;90;21040;-48
2021/07/27 10:54:28;;;;;;;10.68;6.25;;;;;;;34.18;46.09;101856.70;1563834;91;21272;-47
2021/07/27 10:57:04;;;;;;;14.73;7.65;;;;;;;34.17;45.89;101852.32;1536292;92;21565;-49
2021/07/27 10:59:37;;;;;;;15.13;9.35;;;;;;;34.17;45.86;101849.62;1531064;90;21108;-49
2021/07/27 11:02:12;;;;;;;13.72;8.18;;;;;;;34.16;46.14;101851.96;1570683;90;21056;-51
2021/07/27 11:04:39;;;;;;;13.48;8.30;;;;;;;34.16;46.30;101848.77;1558581;91;21059;-48
2021/07/27 11:07:14;;;;;;;15.32;13.65;;;;;;;34.16;45.95;101851.47;1528575;92;21131;-54
2021/07/27 11:09:57;;;;;;;12.63;9.33;;;;;;;34.17;45.89;101841.52;1544902;90;21047;-49
2021/07/27 11:12:36;;;;;;;17.32;12.37;;;;;;;34.18;46.07;101839.14;1537039;91;21661;-48
2021/07/27 11:15:20;;;;;;;9.73;7.37;;;;;;;34.20;46.15;101842.53;1537407;91;21081;-48
2021/07/27 11:18:00;;;;;;;10.65;6.55;;;;;;;34.20;46.19;101847.94;1586792;88;21029;-49
2021/07/27 11:20:39;;;;;;;8.20;6.62;;;;;;;34.22;46.13;101847.27;1598840;88;21220;-50
2021/07/27 11:23:12;;;;;;;13.58;9.05;;;;;;;34.19;46.24;101847.08;1577538;89;21051;-51
2021/07/27 11:25:40;;;;;;;18.90;11.22;;;;;;;34.18;46.71;101852.65;1580350;89;21569;-50
2021/07/27 11:28:14;;;;;;;17.32;7.90;;;;;;;34.18;46.50;101854.00;1532498;91;21360;-51
2021/07/27 11:30:42;;;;;;;11.40;8.55;;;;;;;34.19;46.41;101857.06;1570691;90;21068;-49
2021/07/27 11:33:18;;;;;;;12.20;8.68;;;;;;;34.20;46.39;101849.28;1564364;91;21075;-49
2021/07/27 11:35:53;;;;;;;17.40;13.05;;;;;;;34.21;46.86;101848.30;1597493;86;21059;-53
2021/07/27 11:38:28;;;;;;;15.30;8.88;;;;;;;34.21;47.42;101855.05;1642220;86;21087;-48
2021/07/27 11:41:10;;;;;;;8.70;7.67;;;;;;;34.23;47.26;101851.15;1588555;89;21071;-49
2021/07/27 11:43:40;;;;;;;20.02;17.82;;;;;;;34.24;47.14;101843.91;1560153;91;21564;-49
2021/07/27 11:46:16;;;;;;;12.93;10.98;;;;;;;34.27;47.30;101847.65;1575003;90;21092;-48